sensor_id;sensor_type;location;lat;lon;timestamp;pressure;altitude;pressure_sealevel;temperature;humidity
77723;BME280;67811;42.656;23.394;2024-02-28T00:00:06;95386.38;;;8.40;70.84
77723;BME280;67811;42.656;23.394;2024-02-28T00:04:11;95391.69;;;8.49;70.56
77723;BME280;67811;42.656;23.394;2024-02-28T00:08:17;95395.66;;;8.61;70.00
77723;BME280;67811;42.656;23.394;2024-02-28T00:12:22;95395.81;;;8.51;70.81
77723;BME280;67811;42.656;23.394;2024-02-28T00:16:28;95400.59;;;8.56;70.96
77723;BME280;67811;42.656;23.394;2024-02-28T00:20:33;95403.59;;;8.53;71.29
77723;BME280;67811;42.656;23.394;2024-02-28T00:24:38;95403.09;;;8.57;70.64
77723;BME280;67811;42.656;23.394;2024-02-28T00:28:43;95405.88;;;8.56;71.33
77723;BME280;67811;42.656;23.394;2024-02-28T00:32:49;95392.63;;;8.31;71.86
77723;BME280;67811;42.656;23.394;2024-02-28T00:36:54;95389.63;;;8.18;72.85
77723;BME280;67811;42.656;23.394;2024-02-28T00:40:59;95388.16;;;8.24;72.53
77723;BME280;67811;42.656;23.394;2024-02-28T00:45:05;95386.03;;;8.35;72.44
77723;BME280;67811;42.656;23.394;2024-02-28T00:49:10;95391.78;;;8.14;73.19
77723;BME280;67811;42.656;23.394;2024-02-28T00:53:15;95387.94;;;8.01;74.03
77723;BME280;67811;42.656;23.394;2024-02-28T00:57:21;95388.63;;;8.03;73.87
77723;BME280;67811;42.656;23.394;2024-02-28T01:01:26;95390.09;;;8.05;73.87
77723;BME280;67811;42.656;23.394;2024-02-28T01:05:31;95392.53;;;7.90;74.64
77723;BME280;67811;42.656;23.394;2024-02-28T01:09:36;95404.56;;;7.85;74.75
77723;BME280;67811;42.656;23.394;2024-02-28T01:13:42;95395.22;;;7.56;75.19
77723;BME280;67811;42.656;23.394;2024-02-28T01:17:47;95391.75;;;7.48;76.21
77723;BME280;67811;42.656;23.394;2024-02-28T01:21:52;95397.97;;;7.47;76.23
77723;BME280;67811;42.656;23.394;2024-02-28T01:25:57;95405.78;;;7.56;76.21
77723;BME280;67811;42.656;23.394;2024-02-28T01:30:03;95408.94;;;7.68;75.77
77723;BME280;67811;42.656;23.394;2024-02-28T01:34:08;95409.69;;;7.86;74.84
77723;BME280;67811;42.656;23.394;2024-02-28T01:38:13;95409.19;;;7.83;75.02
77723;BME280;67811;42.656;23.394;2024-02-28T01:42:18;95409.88;;;7.93;74.27
77723;BME280;67811;42.656;23.394;2024-02-28T01:46:26;95406.19;;;7.78;74.47
77723;BME280;67811;42.656;23.394;2024-02-28T01:50:32;95416.16;;;7.58;76.05
77723;BME280;67811;42.656;23.394;2024-02-28T01:54:38;95423.59;;;7.62;75.89
77723;BME280;67811;42.656;23.394;2024-02-28T01:58:45;95424.00;;;7.76;75.25
77723;BME280;67811;42.656;23.394;2024-02-28T02:02:51;95433.66;;;7.59;75.01
77723;BME280;67811;42.656;23.394;2024-02-28T02:06:56;95428.66;;;7.48;75.93
77723;BME280;67811;42.656;23.394;2024-02-28T02:11:02;95426.59;;;7.07;78.21
77723;BME280;67811;42.656;23.394;2024-02-28T02:15:07;95422.31;;;7.06;78.67
77723;BME280;67811;42.656;23.394;2024-02-28T02:19:12;95418.59;;;7.17;78.05
77723;BME280;67811;42.656;23.394;2024-02-28T02:23:18;95419.50;;;7.34;77.37
77723;BME280;67811;42.656;23.394;2024-02-28T02:27:24;95417.19;;;7.31;77.49
77723;BME280;67811;42.656;23.394;2024-02-28T02:31:29;95422.25;;;7.24;77.41
77723;BME280;67811;42.656;23.394;2024-02-28T02:35:34;95413.38;;;7.25;77.36
77723;BME280;67811;42.656;23.394;2024-02-28T02:39:40;95420.78;;;7.30;77.08
77723;BME280;67811;42.656;23.394;2024-02-28T02:43:45;95413.78;;;7.47;75.98
77723;BME280;67811;42.656;23.394;2024-02-28T02:47:50;95414.28;;;7.42;76.32
77723;BME280;67811;42.656;23.394;2024-02-28T02:51:55;95419.59;;;7.50;76.02
77723;BME280;67811;42.656;23.394;2024-02-28T02:56:03;95430.13;;;7.16;77.27
77723;BME280;67811;42.656;23.394;2024-02-28T03:00:10;95422.97;;;7.34;76.92
77723;BME280;67811;42.656;23.394;2024-02-28T03:04:16;95421.88;;;7.45;75.82
77723;BME280;67811;42.656;23.394;2024-02-28T03:08:21;95423.03;;;7.43;75.88
77723;BME280;67811;42.656;23.394;2024-02-28T03:12:26;95421.16;;;7.35;75.91
77723;BME280;67811;42.656;23.394;2024-02-28T03:16:32;95423.97;;;7.42;75.80
77723;BME280;67811;42.656;23.394;2024-02-28T03:20:37;95421.03;;;7.45;75.56
77723;BME280;67811;42.656;23.394;2024-02-28T03:24:42;95418.06;;;7.39;75.22
77723;BME280;67811;42.656;23.394;2024-02-28T03:28:47;95440.69;;;7.24;75.42
77723;BME280;67811;42.656;23.394;2024-02-28T03:32:52;95435.88;;;7.20;76.15
77723;BME280;67811;42.656;23.394;2024-02-28T03:36:58;95435.50;;;7.40;75.34
77723;BME280;67811;42.656;23.394;2024-02-28T03:41:03;95442.84;;;7.21;75.76
77723;BME280;67811;42.656;23.394;2024-02-28T03:45:08;95444.28;;;7.15;76.33
77723;BME280;67811;42.656;23.394;2024-02-28T03:49:14;95439.63;;;7.09;76.49
77723;BME280;67811;42.656;23.394;2024-02-28T03:53:19;95443.72;;;7.03;76.99
77723;BME280;67811;42.656;23.394;2024-02-28T03:57:24;95441.53;;;6.99;77.75
77723;BME280;67811;42.656;23.394;2024-02-28T04:01:30;95439.00;;;7.15;77.55
77723;BME280;67811;42.656;23.394;2024-02-28T04:05:35;95441.53;;;6.81;78.47
77723;BME280;67811;42.656;23.394;2024-02-28T04:09:40;95441.00;;;6.95;78.00
77723;BME280;67811;42.656;23.394;2024-02-28T04:13:46;95437.78;;;6.83;78.59
77723;BME280;67811;42.656;23.394;2024-02-28T04:17:51;95433.50;;;6.82;78.67
77723;BME280;67811;42.656;23.394;2024-02-28T04:21:57;95439.06;;;6.79;79.31
77723;BME280;67811;42.656;23.394;2024-02-28T04:26:02;95431.16;;;6.79;78.91
77723;BME280;67811;42.656;23.394;2024-02-28T04:30:07;95434.75;;;6.96;78.42
77723;BME280;67811;42.656;23.394;2024-02-28T04:34:13;95433.22;;;7.11;77.43
77723;BME280;67811;42.656;23.394;2024-02-28T04:38:18;95440.47;;;7.09;77.23
77723;BME280;67811;42.656;23.394;2024-02-28T04:42:23;95443.47;;;6.97;77.72
77723;BME280;67811;42.656;23.394;2024-02-28T04:46:28;95434.84;;;6.86;78.64
77723;BME280;67811;42.656;23.394;2024-02-28T04:50:34;95450.06;;;6.75;79.16
77723;BME280;67811;42.656;23.394;2024-02-28T04:54:40;95446.91;;;6.71;79.34
77723;BME280;67811;42.656;23.394;2024-02-28T04:58:45;95442.72;;;6.86;78.65
77723;BME280;67811;42.656;23.394;2024-02-28T05:02:50;95451.69;;;6.94;78.08
77723;BME280;67811;42.656;23.394;2024-02-28T05:06:56;95455.53;;;6.99;77.62
77723;BME280;67811;42.656;23.394;2024-02-28T05:11:01;95458.16;;;6.99;77.72
77723;BME280;67811;42.656;23.394;2024-02-28T05:15:06;95462.53;;;6.91;78.06
77723;BME280;67811;42.656;23.394;2024-02-28T05:19:12;95470.38;;;6.82;78.06
77723;BME280;67811;42.656;23.394;2024-02-28T05:23:17;95475.34;;;6.85;78.01
77723;BME280;67811;42.656;23.394;2024-02-28T05:27:22;95476.75;;;6.98;77.92
77723;BME280;67811;42.656;23.394;2024-02-28T05:31:27;95482.56;;;7.27;76.74
77723;BME280;67811;42.656;23.394;2024-02-28T05:35:33;95491.66;;;7.59;75.53
77723;BME280;67811;42.656;23.394;2024-02-28T05:39:38;95489.41;;;7.72;74.63
77723;BME280;67811;42.656;23.394;2024-02-28T05:43:43;95498.44;;;7.96;73.95
77723;BME280;67811;42.656;23.394;2024-02-28T05:47:49;95501.47;;;8.17;72.99
77723;BME280;67811;42.656;23.394;2024-02-28T05:51:54;95498.00;;;8.59;71.10
77723;BME280;67811;42.656;23.394;2024-02-28T05:55:59;95507.44;;;8.69;71.02
77723;BME280;67811;42.656;23.394;2024-02-28T06:00:05;95515.16;;;8.55;70.95
77723;BME280;67811;42.656;23.394;2024-02-28T06:04:10;95519.75;;;8.44;71.42
77723;BME280;67811;42.656;23.394;2024-02-28T06:08:16;95514.69;;;8.59;71.79
77723;BME280;67811;42.656;23.394;2024-02-28T06:12:21;95516.84;;;9.78;67.96
77723;BME280;67811;42.656;23.394;2024-02-28T06:16:26;95517.34;;;10.29;65.11
77723;BME280;67811;42.656;23.394;2024-02-28T06:20:32;95521.69;;;11.30;62.91
77723;BME280;67811;42.656;23.394;2024-02-28T06:24:37;95515.28;;;11.77;61.17
77723;BME280;67811;42.656;23.394;2024-02-28T06:28:43;95523.75;;;12.39;58.02
77723;BME280;67811;42.656;23.394;2024-02-28T06:32:48;95525.00;;;13.16;55.84
77723;BME280;67811;42.656;23.394;2024-02-28T06:36:54;95529.50;;;13.30;54.51
77723;BME280;67811;42.656;23.394;2024-02-28T06:40:59;95521.75;;;14.54;51.79
77723;BME280;67811;42.656;23.394;2024-02-28T06:45:05;95523.03;;;15.59;48.81
77723;BME280;67811;42.656;23.394;2024-02-28T06:49:10;95522.16;;;16.45;46.14
77723;BME280;67811;42.656;23.394;2024-02-28T06:53:15;95521.63;;;15.63;47.37
77723;BME280;67811;42.656;23.394;2024-02-28T06:57:20;95519.16;;;15.62;47.90
77723;BME280;67811;42.656;23.394;2024-02-28T07:01:26;95522.25;;;15.65;47.60
77723;BME280;67811;42.656;23.394;2024-02-28T07:05:31;95517.75;;;15.66;47.06
77723;BME280;67811;42.656;23.394;2024-02-28T07:09:37;95518.97;;;15.90;47.28
77723;BME280;67811;42.656;23.394;2024-02-28T07:13:43;95520.00;;;16.73;44.98
77723;BME280;67811;42.656;23.394;2024-02-28T07:17:48;95515.56;;;17.37;43.72
77723;BME280;67811;42.656;23.394;2024-02-28T07:21:53;95513.63;;;18.01;42.24
77723;BME280;67811;42.656;23.394;2024-02-28T07:25:59;95521.34;;;17.90;42.34
77723;BME280;67811;42.656;23.394;2024-02-28T07:30:05;95525.31;;;17.25;42.73
77723;BME280;67811;42.656;23.394;2024-02-28T07:34:10;95514.22;;;17.21;43.64
77723;BME280;67811;42.656;23.394;2024-02-28T07:38:15;95529.72;;;18.62;40.74
77723;BME280;67811;42.656;23.394;2024-02-28T07:42:21;95531.56;;;18.43;41.14
77723;BME280;67811;42.656;23.394;2024-02-28T07:46:26;95526.28;;;19.40;39.19
77723;BME280;67811;42.656;23.394;2024-02-28T07:50:31;95526.19;;;20.12;38.07
77723;BME280;67811;42.656;23.394;2024-02-28T07:54:36;95527.34;;;18.54;40.12
77723;BME280;67811;42.656;23.394;2024-02-28T07:58:42;95521.75;;;19.22;38.62
77723;BME280;67811;42.656;23.394;2024-02-28T08:02:47;95521.97;;;19.93;37.96
77723;BME280;67811;42.656;23.394;2024-02-28T08:06:52;95520.47;;;20.09;37.21
77723;BME280;67811;42.656;23.394;2024-02-28T08:10:58;95518.81;;;19.84;37.71
77723;BME280;67811;42.656;23.394;2024-02-28T08:15:03;95516.59;;;20.05;37.53
77723;BME280;67811;42.656;23.394;2024-02-28T08:19:09;95508.53;;;20.28;36.42
77723;BME280;67811;42.656;23.394;2024-02-28T08:23:14;95501.81;;;20.77;36.51
77723;BME280;67811;42.656;23.394;2024-02-28T08:27:20;95504.88;;;21.67;35.13
77723;BME280;67811;42.656;23.394;2024-02-28T08:31:25;95512.63;;;22.47;33.93
77723;BME280;67811;42.656;23.394;2024-02-28T08:35:30;95506.13;;;21.47;34.64
77723;BME280;67811;42.656;23.394;2024-02-28T08:39:35;95505.13;;;21.82;35.00
77723;BME280;67811;42.656;23.394;2024-02-28T08:43:41;95500.53;;;22.72;32.76
77723;BME280;67811;42.656;23.394;2024-02-28T08:47:46;95504.56;;;22.52;32.76
77723;BME280;67811;42.656;23.394;2024-02-28T08:51:51;95493.69;;;22.64;32.49
77723;BME280;67811;42.656;23.394;2024-02-28T08:55:56;95495.47;;;22.97;32.02
77723;BME280;67811;42.656;23.394;2024-02-28T09:00:02;95490.56;;;22.94;31.58
77723;BME280;67811;42.656;23.394;2024-02-28T09:04:07;95491.53;;;22.66;32.05
77723;BME280;67811;42.656;23.394;2024-02-28T09:08:12;95485.50;;;22.59;32.07
77723;BME280;67811;42.656;23.394;2024-02-28T09:12:18;95492.19;;;20.82;34.96
77723;BME280;67811;42.656;23.394;2024-02-28T09:16:23;95487.44;;;20.60;35.32
77723;BME280;67811;42.656;23.394;2024-02-28T09:20:28;95495.78;;;20.00;35.93
77723;BME280;67811;42.656;23.394;2024-02-28T09:24:33;95498.31;;;19.83;36.56
77723;BME280;67811;42.656;23.394;2024-02-28T09:28:38;95489.38;;;21.17;34.62
77723;BME280;67811;42.656;23.394;2024-02-28T09:32:44;95485.53;;;21.41;34.38
77723;BME280;67811;42.656;23.394;2024-02-28T09:36:49;95479.38;;;21.00;34.20
77723;BME280;67811;42.656;23.394;2024-02-28T09:40:55;95484.53;;;20.15;36.00
77723;BME280;67811;42.656;23.394;2024-02-28T09:45:00;95487.59;;;17.83;40.41
77723;BME280;67811;42.656;23.394;2024-02-28T09:49:07;95474.41;;;19.52;38.54
77723;BME280;67811;42.656;23.394;2024-02-28T09:53:12;95472.50;;;20.17;36.22
77723;BME280;67811;42.656;23.394;2024-02-28T09:57:17;95464.53;;;19.34;37.86
77723;BME280;67811;42.656;23.394;2024-02-28T10:01:23;95464.53;;;18.92;38.04
77723;BME280;67811;42.656;23.394;2024-02-28T10:05:28;95472.94;;;18.47;39.14
77723;BME280;67811;42.656;23.394;2024-02-28T10:09:34;95470.06;;;15.83;43.96
77723;BME280;67811;42.656;23.394;2024-02-28T10:13:39;95468.59;;;15.87;45.03
77723;BME280;67811;42.656;23.394;2024-02-28T10:17:44;95468.78;;;15.59;44.18
77723;BME280;67811;42.656;23.394;2024-02-28T10:21:50;95461.41;;;15.47;45.25
77723;BME280;67811;42.656;23.394;2024-02-28T10:25:55;95451.34;;;15.29;45.19
77723;BME280;67811;42.656;23.394;2024-02-28T10:30:01;95450.03;;;14.72;46.10
77723;BME280;67811;42.656;23.394;2024-02-28T10:34:08;95448.44;;;14.98;46.96
77723;BME280;67811;42.656;23.394;2024-02-28T10:38:14;95425.41;;;15.90;45.74
77723;BME280;67811;42.656;23.394;2024-02-28T10:42:21;95421.88;;;16.60;44.30
77723;BME280;67811;42.656;23.394;2024-02-28T10:46:27;95417.72;;;18.03;41.46
77723;BME280;67811;42.656;23.394;2024-02-28T10:50:33;95407.84;;;19.12;38.93
77723;BME280;67811;42.656;23.394;2024-02-28T10:54:40;95411.00;;;18.79;38.86
77723;BME280;67811;42.656;23.394;2024-02-28T10:58:52;95411.09;;;18.72;38.83
77723;BME280;67811;42.656;23.394;2024-02-28T11:03:00;95406.25;;;17.46;41.05
77723;BME280;67811;42.656;23.394;2024-02-28T11:07:06;95401.91;;;18.13;40.60
77723;BME280;67811;42.656;23.394;2024-02-28T11:11:13;95394.81;;;18.85;37.87
77723;BME280;67811;42.656;23.394;2024-02-28T11:15:19;95390.09;;;18.51;38.59
77723;BME280;67811;42.656;23.394;2024-02-28T11:19:24;95377.75;;;18.31;39.59
77723;BME280;67811;42.656;23.394;2024-02-28T11:23:36;95381.50;;;17.94;39.63
77723;BME280;67811;42.656;23.394;2024-02-28T11:27:46;95374.56;;;17.18;41.30
77723;BME280;67811;42.656;23.394;2024-02-28T11:31:52;95374.25;;;16.31;43.49
77723;BME280;67811;42.656;23.394;2024-02-28T11:35:57;95371.72;;;17.12;42.60
77723;BME280;67811;42.656;23.394;2024-02-28T11:40:03;95366.28;;;17.69;40.98
77723;BME280;67811;42.656;23.394;2024-02-28T11:44:09;95363.72;;;17.81;40.16
77723;BME280;67811;42.656;23.394;2024-02-28T11:48:14;95354.72;;;17.69;40.99
77723;BME280;67811;42.656;23.394;2024-02-28T11:52:20;95350.25;;;17.62;40.48
77723;BME280;67811;42.656;23.394;2024-02-28T11:56:25;95350.63;;;17.23;41.89
77723;BME280;67811;42.656;23.394;2024-02-28T12:00:30;95344.94;;;16.88;41.74
77723;BME280;67811;42.656;23.394;2024-02-28T12:04:36;95349.19;;;16.64;41.38
77723;BME280;67811;42.656;23.394;2024-02-28T12:08:41;95338.97;;;16.85;41.40
77723;BME280;67811;42.656;23.394;2024-02-28T12:12:46;95338.06;;;17.23;41.81
77723;BME280;67811;42.656;23.394;2024-02-28T12:16:52;95334.38;;;17.43;41.17
77723;BME280;67811;42.656;23.394;2024-02-28T12:20:57;95314.75;;;17.67;41.65
77723;BME280;67811;42.656;23.394;2024-02-28T12:25:02;95313.25;;;17.71;41.24
77723;BME280;67811;42.656;23.394;2024-02-28T12:29:08;95312.63;;;17.76;41.22
77723;BME280;67811;42.656;23.394;2024-02-28T12:33:13;95304.31;;;18.44;40.48
77723;BME280;67811;42.656;23.394;2024-02-28T12:37:18;95298.31;;;19.02;38.45
77723;BME280;67811;42.656;23.394;2024-02-28T12:41:24;95304.34;;;18.74;38.40
77723;BME280;67811;42.656;23.394;2024-02-28T12:45:29;95299.44;;;17.93;39.87
77723;BME280;67811;42.656;23.394;2024-02-28T12:49:34;95296.31;;;17.77;40.20
77723;BME280;67811;42.656;23.394;2024-02-28T12:53:40;95294.03;;;18.11;39.20
77723;BME280;67811;42.656;23.394;2024-02-28T12:57:45;95289.88;;;18.57;38.54
77723;BME280;67811;42.656;23.394;2024-02-28T13:01:50;95295.59;;;18.49;38.27
77723;BME280;67811;42.656;23.394;2024-02-28T13:05:56;95284.03;;;18.48;37.68
77723;BME280;67811;42.656;23.394;2024-02-28T13:10:01;95290.66;;;18.46;37.97
77723;BME280;67811;42.656;23.394;2024-02-28T13:14:06;95288.28;;;18.26;38.52
77723;BME280;67811;42.656;23.394;2024-02-28T13:18:11;95291.06;;;18.19;37.99
77723;BME280;67811;42.656;23.394;2024-02-28T13:22:17;95298.97;;;17.96;38.30
77723;BME280;67811;42.656;23.394;2024-02-28T13:26:22;95293.94;;;17.87;38.20
77723;BME280;67811;42.656;23.394;2024-02-28T13:30:27;95299.00;;;17.77;38.30
77723;BME280;67811;42.656;23.394;2024-02-28T13:34:33;95298.75;;;17.79;38.18
77723;BME280;67811;42.656;23.394;2024-02-28T13:38:38;95291.25;;;17.69;37.97
77723;BME280;67811;42.656;23.394;2024-02-28T13:42:43;95286.63;;;17.76;37.86
77723;BME280;67811;42.656;23.394;2024-02-28T13:46:50;95286.47;;;17.71;38.20
77723;BME280;67811;42.656;23.394;2024-02-28T13:50:57;95279.25;;;17.53;38.00
77723;BME280;67811;42.656;23.394;2024-02-28T13:55:02;95290.47;;;17.25;38.30
77723;BME280;67811;42.656;23.394;2024-02-28T13:59:08;95281.22;;;17.21;38.27
77723;BME280;67811;42.656;23.394;2024-02-28T14:03:13;95287.47;;;17.15;39.20
77723;BME280;67811;42.656;23.394;2024-02-28T14:07:18;95285.22;;;17.12;38.92
77723;BME280;67811;42.656;23.394;2024-02-28T14:11:24;95279.88;;;17.12;38.99
77723;BME280;67811;42.656;23.394;2024-02-28T14:15:29;95284.56;;;17.17;38.14
77723;BME280;67811;42.656;23.394;2024-02-28T14:19:34;95304.16;;;16.92;40.56
77723;BME280;67811;42.656;23.394;2024-02-28T14:23:39;95300.81;;;16.33;42.13
77723;BME280;67811;42.656;23.394;2024-02-28T14:27:45;95305.03;;;16.16;43.28
77723;BME280;67811;42.656;23.394;2024-02-28T14:31:51;95300.97;;;16.07;43.81
77723;BME280;67811;42.656;23.394;2024-02-28T14:35:58;95296.88;;;15.98;43.96
77723;BME280;67811;42.656;23.394;2024-02-28T14:40:05;95281.66;;;15.98;43.50
77723;BME280;67811;42.656;23.394;2024-02-28T14:44:11;95289.88;;;16.03;43.77
77723;BME280;67811;42.656;23.394;2024-02-28T14:48:16;95289.47;;;16.06;43.14
77723;BME280;67811;42.656;23.394;2024-02-28T14:52:22;95290.41;;;16.19;43.03
77723;BME280;67811;42.656;23.394;2024-02-28T14:56:27;95277.69;;;16.14;43.26
77723;BME280;67811;42.656;23.394;2024-02-28T15:00:32;95271.28;;;16.22;43.36
77723;BME280;67811;42.656;23.394;2024-02-28T15:04:38;95279.16;;;16.10;43.87
77723;BME280;67811;42.656;23.394;2024-02-28T15:08:43;95280.81;;;16.11;43.48
77723;BME280;67811;42.656;23.394;2024-02-28T15:12:49;95285.97;;;16.06;43.35
77723;BME280;67811;42.656;23.394;2024-02-28T15:16:54;95282.94;;;15.96;43.32
77723;BME280;67811;42.656;23.394;2024-02-28T15:20:59;95282.34;;;15.87;43.82
77723;BME280;67811;42.656;23.394;2024-02-28T15:25:05;95292.84;;;15.89;43.46
77723;BME280;67811;42.656;23.394;2024-02-28T15:29:10;95296.88;;;15.98;43.80
77723;BME280;67811;42.656;23.394;2024-02-28T15:33:15;95299.41;;;15.86;43.90
77723;BME280;67811;42.656;23.394;2024-02-28T15:37:21;95299.03;;;15.83;44.05
77723;BME280;67811;42.656;23.394;2024-02-28T15:41:26;95292.84;;;15.82;43.41
77723;BME280;67811;42.656;23.394;2024-02-28T15:45:31;95303.16;;;15.78;44.10
77723;BME280;67811;42.656;23.394;2024-02-28T15:49:36;95304.00;;;15.72;44.01
77723;BME280;67811;42.656;23.394;2024-02-28T15:53:42;95317.81;;;15.36;45.43
77723;BME280;67811;42.656;23.394;2024-02-28T15:57:47;95320.34;;;15.11;47.33
77723;BME280;67811;42.656;23.394;2024-02-28T16:01:52;95327.09;;;14.94;48.04
77723;BME280;67811;42.656;23.394;2024-02-28T16:05:57;95333.88;;;14.70;49.15
77723;BME280;67811;42.656;23.394;2024-02-28T16:10:03;95335.31;;;14.53;50.04
77723;BME280;67811;42.656;23.394;2024-02-28T16:14:09;95340.38;;;14.34;50.50
77723;BME280;67811;42.656;23.394;2024-02-28T16:18:14;95341.16;;;14.28;51.08
77723;BME280;67811;42.656;23.394;2024-02-28T16:22:19;95343.44;;;14.31;51.32
77723;BME280;67811;42.656;23.394;2024-02-28T16:26:25;95346.09;;;14.44;50.75
77723;BME280;67811;42.656;23.394;2024-02-28T16:30:30;95349.41;;;14.40;50.77
77723;BME280;67811;42.656;23.394;2024-02-28T16:34:35;95353.72;;;14.41;50.50
77723;BME280;67811;42.656;23.394;2024-02-28T16:38:40;95359.81;;;14.28;50.60
77723;BME280;67811;42.656;23.394;2024-02-28T16:42:46;95368.81;;;14.14;50.63
77723;BME280;67811;42.656;23.394;2024-02-28T16:46:51;95376.13;;;14.05;51.20
77723;BME280;67811;42.656;23.394;2024-02-28T16:50:56;95374.94;;;14.08;51.46
77723;BME280;67811;42.656;23.394;2024-02-28T16:55:01;95372.03;;;14.03;52.15
77723;BME280;67811;42.656;23.394;2024-02-28T16:59:07;95371.19;;;13.95;52.26
77723;BME280;67811;42.656;23.394;2024-02-28T17:03:12;95379.34;;;13.87;52.20
77723;BME280;67811;42.656;23.394;2024-02-28T17:07:17;95387.31;;;13.81;52.25
77723;BME280;67811;42.656;23.394;2024-02-28T17:11:22;95385.22;;;13.76;51.76
77723;BME280;67811;42.656;23.394;2024-02-28T17:15:29;95389.50;;;13.70;52.08
77723;BME280;67811;42.656;23.394;2024-02-28T17:19:34;95393.41;;;13.68;52.11
77723;BME280;67811;42.656;23.394;2024-02-28T17:23:40;95400.53;;;13.67;52.18
77723;BME280;67811;42.656;23.394;2024-02-28T17:27:45;95400.53;;;13.67;51.83
77723;BME280;67811;42.656;23.394;2024-02-28T17:31:50;95408.72;;;13.66;52.06
77723;BME280;67811;42.656;23.394;2024-02-28T17:35:55;95402.94;;;13.56;51.48
77723;BME280;67811;42.656;23.394;2024-02-28T17:40:01;95407.59;;;13.47;51.71
77723;BME280;67811;42.656;23.394;2024-02-28T17:44:06;95408.13;;;13.36;51.70
77723;BME280;67811;42.656;23.394;2024-02-28T17:48:11;95407.44;;;13.27;52.20
77723;BME280;67811;42.656;23.394;2024-02-28T17:52:17;95405.06;;;13.17;52.76
77723;BME280;67811;42.656;23.394;2024-02-28T17:56:22;95403.44;;;13.16;52.94
77723;BME280;67811;42.656;23.394;2024-02-28T18:00:27;95407.19;;;13.22;52.81
77723;BME280;67811;42.656;23.394;2024-02-28T18:04:33;95400.72;;;13.10;52.96
77723;BME280;67811;42.656;23.394;2024-02-28T18:08:38;95404.38;;;13.02;53.41
77723;BME280;67811;42.656;23.394;2024-02-28T18:12:43;95407.72;;;12.89;53.98
77723;BME280;67811;42.656;23.394;2024-02-28T18:16:48;95409.34;;;12.90;53.30
77723;BME280;67811;42.656;23.394;2024-02-28T18:20:54;95408.97;;;12.93;53.80
77723;BME280;67811;42.656;23.394;2024-02-28T18:24:59;95405.06;;;12.89;54.14
77723;BME280;67811;42.656;23.394;2024-02-28T18:29:04;95411.59;;;12.87;54.48
77723;BME280;67811;42.656;23.394;2024-02-28T18:33:10;95405.38;;;12.80;54.73
77723;BME280;67811;42.656;23.394;2024-02-28T18:37:15;95401.78;;;12.66;55.06
77723;BME280;67811;42.656;23.394;2024-02-28T18:41:20;95406.38;;;12.57;55.31
77723;BME280;67811;42.656;23.394;2024-02-28T18:45:25;95407.84;;;12.60;55.21
77723;BME280;67811;42.656;23.394;2024-02-28T18:49:31;95420.69;;;12.56;55.16
77723;BME280;67811;42.656;23.394;2024-02-28T18:53:36;95424.56;;;12.54;55.21
77723;BME280;67811;42.656;23.394;2024-02-28T18:57:41;95433.09;;;12.49;55.57
77723;BME280;67811;42.656;23.394;2024-02-28T19:01:46;95431.81;;;12.45;55.67
77723;BME280;67811;42.656;23.394;2024-02-28T19:05:52;95430.53;;;12.41;55.50
77723;BME280;67811;42.656;23.394;2024-02-28T19:09:57;95428.50;;;12.22;55.96
77723;BME280;67811;42.656;23.394;2024-02-28T19:14:02;95440.47;;;12.32;55.84
77723;BME280;67811;42.656;23.394;2024-02-28T19:18:07;95431.59;;;12.25;56.03
77723;BME280;67811;42.656;23.394;2024-02-28T19:22:13;95438.72;;;12.25;55.82
77723;BME280;67811;42.656;23.394;2024-02-28T19:26:18;95436.38;;;12.15;56.05
77723;BME280;67811;42.656;23.394;2024-02-28T19:30:23;95446.09;;;12.08;55.84
77723;BME280;67811;42.656;23.394;2024-02-28T19:34:28;95445.16;;;12.16;56.17
77723;BME280;67811;42.656;23.394;2024-02-28T19:38:34;95446.91;;;12.08;56.78
77723;BME280;67811;42.656;23.394;2024-02-28T19:42:39;95449.13;;;11.90;57.05
77723;BME280;67811;42.656;23.394;2024-02-28T19:46:45;95457.78;;;11.69;57.03
77723;BME280;67811;42.656;23.394;2024-02-28T19:50:51;95462.81;;;11.49;57.74
77723;BME280;67811;42.656;23.394;2024-02-28T19:54:56;95462.31;;;11.31;58.33
77723;BME280;67811;42.656;23.394;2024-02-28T19:59:01;95466.41;;;11.19;58.87
77723;BME280;67811;42.656;23.394;2024-02-28T20:03:07;95466.81;;;11.07;59.36
77723;BME280;67811;42.656;23.394;2024-02-28T20:07:13;95469.19;;;11.02;59.55
77723;BME280;67811;42.656;23.394;2024-02-28T20:11:18;95475.69;;;11.00;59.75
77723;BME280;67811;42.656;23.394;2024-02-28T20:15:23;95480.56;;;10.88;60.10
77723;BME280;67811;42.656;23.394;2024-02-28T20:19:28;95465.25;;;10.75;60.61
77723;BME280;67811;42.656;23.394;2024-02-28T20:23:34;95468.06;;;10.74;60.71
77723;BME280;67811;42.656;23.394;2024-02-28T20:27:39;95473.19;;;10.75;60.54
77723;BME280;67811;42.656;23.394;2024-02-28T20:31:44;95479.38;;;10.68;61.16
77723;BME280;67811;42.656;23.394;2024-02-28T20:35:50;95470.84;;;10.58;61.22
77723;BME280;67811;42.656;23.394;2024-02-28T20:39:55;95473.25;;;10.44;61.84
77723;BME280;67811;42.656;23.394;2024-02-28T20:44:00;95478.63;;;10.28;62.52
77723;BME280;67811;42.656;23.394;2024-02-28T20:48:06;95485.28;;;10.08;63.46
77723;BME280;67811;42.656;23.394;2024-02-28T20:52:11;95482.53;;;9.93;63.97
77723;BME280;67811;42.656;23.394;2024-02-28T20:56:16;95481.00;;;10.07;63.57
77723;BME280;67811;42.656;23.394;2024-02-28T21:00:23;95475.41;;;9.93;64.40
77723;BME280;67811;42.656;23.394;2024-02-28T21:04:28;95469.41;;;10.08;63.75
77723;BME280;67811;42.656;23.394;2024-02-28T21:08:34;95473.13;;;9.82;64.39
77723;BME280;67811;42.656;23.394;2024-02-28T21:12:39;95466.38;;;9.71;65.35
77723;BME280;67811;42.656;23.394;2024-02-28T21:16:44;95467.09;;;9.57;65.63
77723;BME280;67811;42.656;23.394;2024-02-28T21:20:49;95464.81;;;9.46;66.05
77723;BME280;67811;42.656;23.394;2024-02-28T21:24:55;95461.31;;;9.54;66.02